sensor_id;sensor_type;location;lat;lon;timestamp;P1;durP1;ratioP1;P2;durP2;ratioP2
51866;SDS011;52862;52.504;13.480;2023-02-28T00:01:17;9.77;;;4.37;;
51866;SDS011;52862;52.504;13.480;2023-02-28T00:03:44;9.93;;;4.63;;
51866;SDS011;52862;52.504;13.480;2023-02-28T00:06:10;13.87;;;4.77;;
51866;SDS011;52862;52.504;13.480;2023-02-28T00:08:37;15.47;;;5.33;;
51866;SDS011;52862;52.504;13.480;2023-02-28T00:11:06;16.20;;;4.83;;
51866;SDS011;52862;52.504;13.480;2023-02-28T00:13:35;16.80;;;4.40;;
51866;SDS011;52862;52.504;13.480;2023-02-28T00:16:04;10.13;;;4.40;;
51866;SDS011;52862;52.504;13.480;2023-02-28T00:18:32;14.63;;;4.53;;
51866;SDS011;52862;52.504;13.480;2023-02-28T00:20:59;10.80;;;4.77;;
51866;SDS011;52862;52.504;13.480;2023-02-28T00:23:26;14.67;;;4.57;;
51866;SDS011;52862;52.504;13.480;2023-02-28T00:25:53;13.57;;;4.40;;
51866;SDS011;52862;52.504;13.480;2023-02-28T00:28:21;12.63;;;4.70;;
51866;SDS011;52862;52.504;13.480;2023-02-28T00:30:48;12.97;;;5.20;;
51866;SDS011;52862;52.504;13.480;2023-02-28T00:33:15;11.20;;;4.40;;
51866;SDS011;52862;52.504;13.480;2023-02-28T00:35:42;9.77;;;4.67;;
51866;SDS011;52862;52.504;13.480;2023-02-28T00:38:11;13.80;;;4.80;;
51866;SDS011;52862;52.504;13.480;2023-02-28T00:40:38;11.27;;;4.57;;
51866;SDS011;52862;52.504;13.480;2023-02-28T00:43:05;10.10;;;4.60;;
51866;SDS011;52862;52.504;13.480;2023-02-28T00:45:32;15.80;;;4.53;;
51866;SDS011;52862;52.504;13.480;2023-02-28T00:47:59;15.90;;;4.70;;
51866;SDS011;52862;52.504;13.480;2023-02-28T00:50:26;11.50;;;4.00;;
51866;SDS011;52862;52.504;13.480;2023-02-28T00:52:52;14.50;;;4.70;;
51866;SDS011;52862;52.504;13.480;2023-02-28T00:55:19;19.87;;;5.17;;
51866;SDS011;52862;52.504;13.480;2023-02-28T00:57:46;9.70;;;4.50;;
51866;SDS011;52862;52.504;13.480;2023-02-28T01:00:13;11.03;;;4.80;;
51866;SDS011;52862;52.504;13.480;2023-02-28T01:02:41;14.93;;;5.20;;
51866;SDS011;52862;52.504;13.480;2023-02-28T01:05:07;13.97;;;4.93;;
51866;SDS011;52862;52.504;13.480;2023-02-28T01:07:34;14.23;;;4.63;;
51866;SDS011;52862;52.504;13.480;2023-02-28T01:10:01;16.60;;;5.13;;
51866;SDS011;52862;52.504;13.480;2023-02-28T01:12:30;12.13;;;5.77;;
51866;SDS011;52862;52.504;13.480;2023-02-28T01:14:57;10.37;;;5.13;;
51866;SDS011;52862;52.504;13.480;2023-02-28T01:17:24;14.87;;;5.30;;
51866;SDS011;52862;52.504;13.480;2023-02-28T01:19:53;13.23;;;5.40;;
51866;SDS011;52862;52.504;13.480;2023-02-28T01:22:20;13.37;;;4.70;;
51866;SDS011;52862;52.504;13.480;2023-02-28T01:24:47;9.73;;;5.00;;
51866;SDS011;52862;52.504;13.480;2023-02-28T01:27:14;15.87;;;5.97;;
51866;SDS011;52862;52.504;13.480;2023-02-28T01:29:40;11.73;;;5.43;;
51866;SDS011;52862;52.504;13.480;2023-02-28T01:32:07;13.73;;;5.10;;
51866;SDS011;52862;52.504;13.480;2023-02-28T01:34:34;14.30;;;5.70;;
51866;SDS011;52862;52.504;13.480;2023-02-28T01:37:01;16.00;;;4.93;;
51866;SDS011;52862;52.504;13.480;2023-02-28T01:39:29;19.17;;;6.03;;
51866;SDS011;52862;52.504;13.480;2023-02-28T01:41:55;13.93;;;5.47;;
51866;SDS011;52862;52.504;13.480;2023-02-28T01:47:33;14.73;;;5.70;;
51866;SDS011;52862;52.504;13.480;2023-02-28T01:50:03;17.87;;;5.60;;
51866;SDS011;52862;52.504;13.480;2023-02-28T01:52:33;14.60;;;5.73;;
51866;SDS011;52862;52.504;13.480;2023-02-28T01:55:01;13.53;;;5.30;;
51866;SDS011;52862;52.504;13.480;2023-02-28T01:57:30;22.10;;;6.57;;
51866;SDS011;52862;52.504;13.480;2023-02-28T02:00:05;18.33;;;6.77;;
51866;SDS011;52862;52.504;13.480;2023-02-28T02:02:33;13.67;;;5.90;;
51866;SDS011;52862;52.504;13.480;2023-02-28T02:05:03;18.53;;;7.60;;
51866;SDS011;52862;52.504;13.480;2023-02-28T02:07:31;13.60;;;7.10;;
51866;SDS011;52862;52.504;13.480;2023-02-28T02:10:03;16.90;;;7.43;;
51866;SDS011;52862;52.504;13.480;2023-02-28T02:12:35;17.80;;;7.10;;
51866;SDS011;52862;52.504;13.480;2023-02-28T02:15:16;23.23;;;7.63;;
51866;SDS011;52862;52.504;13.480;2023-02-28T02:17:50;23.33;;;8.13;;
51866;SDS011;52862;52.504;13.480;2023-02-28T02:20:41;15.83;;;6.80;;
51866;SDS011;52862;52.504;13.480;2023-02-28T02:23:55;17.43;;;7.27;;
51866;SDS011;52862;52.504;13.480;2023-02-28T02:26:59;16.57;;;6.40;;
51866;SDS011;52862;52.504;13.480;2023-02-28T02:29:37;19.23;;;7.33;;
51866;SDS011;52862;52.504;13.480;2023-02-28T02:35:33;21.97;;;6.97;;
51866;SDS011;52862;52.504;13.480;2023-02-28T02:38:06;17.40;;;7.20;;
51866;SDS011;52862;52.504;13.480;2023-02-28T02:40:38;14.63;;;6.50;;
51866;SDS011;52862;52.504;13.480;2023-02-28T02:43:11;22.37;;;6.93;;
51866;SDS011;52862;52.504;13.480;2023-02-28T02:45:44;18.93;;;7.30;;
51866;SDS011;52862;52.504;13.480;2023-02-28T02:48:15;22.20;;;6.80;;
51866;SDS011;52862;52.504;13.480;2023-02-28T02:50:46;14.63;;;6.00;;
51866;SDS011;52862;52.504;13.480;2023-02-28T02:53:16;13.83;;;6.00;;
51866;SDS011;52862;52.504;13.480;2023-02-28T02:55:47;17.20;;;7.37;;
51866;SDS011;52862;52.504;13.480;2023-02-28T02:58:20;27.40;;;7.13;;
51866;SDS011;52862;52.504;13.480;2023-02-28T03:00:50;21.30;;;7.87;;
51866;SDS011;52862;52.504;13.480;2023-02-28T03:03:20;19.03;;;7.37;;
51866;SDS011;52862;52.504;13.480;2023-02-28T03:05:55;17.17;;;6.70;;
51866;SDS011;52862;52.504;13.480;2023-02-28T03:08:22;22.97;;;7.73;;
51866;SDS011;52862;52.504;13.480;2023-02-28T03:10:51;20.60;;;7.30;;
51866;SDS011;52862;52.504;13.480;2023-02-28T03:13:35;20.97;;;7.03;;
51866;SDS011;52862;52.504;13.480;2023-02-28T03:16:15;16.97;;;7.33;;
51866;SDS011;52862;52.504;13.480;2023-02-28T03:18:54;19.93;;;7.33;;
51866;SDS011;52862;52.504;13.480;2023-02-28T03:21:31;19.93;;;7.77;;
51866;SDS011;52862;52.504;13.480;2023-02-28T03:24:04;19.80;;;7.50;;
51866;SDS011;52862;52.504;13.480;2023-02-28T03:26:35;20.53;;;8.00;;
51866;SDS011;52862;52.504;13.480;2023-02-28T03:29:06;20.83;;;6.70;;
51866;SDS011;52862;52.504;13.480;2023-02-28T03:31:43;14.03;;;6.37;;
51866;SDS011;52862;52.504;13.480;2023-02-28T03:34:16;24.40;;;7.77;;
51866;SDS011;52862;52.504;13.480;2023-02-28T03:36:47;19.50;;;7.17;;
51866;SDS011;52862;52.504;13.480;2023-02-28T03:39:17;19.80;;;6.80;;
51866;SDS011;52862;52.504;13.480;2023-02-28T03:41:47;14.53;;;7.23;;
51866;SDS011;52862;52.504;13.480;2023-02-28T03:44:19;17.23;;;7.63;;
51866;SDS011;52862;52.504;13.480;2023-02-28T03:46:52;22.57;;;8.13;;
51866;SDS011;52862;52.504;13.480;2023-02-28T03:49:23;20.93;;;8.90;;
51866;SDS011;52862;52.504;13.480;2023-02-28T03:51:54;19.20;;;8.07;;
51866;SDS011;52862;52.504;13.480;2023-02-28T03:54:25;24.00;;;8.77;;
51866;SDS011;52862;52.504;13.480;2023-02-28T03:56:57;17.53;;;8.10;;
51866;SDS011;52862;52.504;13.480;2023-02-28T03:59:30;27.70;;;7.57;;
51866;SDS011;52862;52.504;13.480;2023-02-28T04:02:01;25.40;;;8.20;;
51866;SDS011;52862;52.504;13.480;2023-02-28T04:04:28;28.17;;;8.23;;
51866;SDS011;52862;52.504;13.480;2023-02-28T04:07:01;26.07;;;8.73;;
51866;SDS011;52862;52.504;13.480;2023-02-28T04:09:29;25.13;;;8.50;;
51866;SDS011;52862;52.504;13.480;2023-02-28T04:11:56;24.23;;;8.30;;
51866;SDS011;52862;52.504;13.480;2023-02-28T04:14:23;18.50;;;8.23;;
51866;SDS011;52862;52.504;13.480;2023-02-28T04:16:50;18.57;;;8.53;;
51866;SDS011;52862;52.504;13.480;2023-02-28T04:19:17;24.00;;;8.07;;
51866;SDS011;52862;52.504;13.480;2023-02-28T04:21:45;20.80;;;8.20;;
51866;SDS011;52862;52.504;13.480;2023-02-28T04:24:14;23.23;;;8.87;;
51866;SDS011;52862;52.504;13.480;2023-02-28T04:26:42;28.53;;;9.93;;
51866;SDS011;52862;52.504;13.480;2023-02-28T04:29:11;25.10;;;9.37;;
51866;SDS011;52862;52.504;13.480;2023-02-28T04:31:39;25.70;;;8.83;;
51866;SDS011;52862;52.504;13.480;2023-02-28T04:34:06;21.70;;;9.27;;
51866;SDS011;52862;52.504;13.480;2023-02-28T04:36:33;26.40;;;8.87;;
51866;SDS011;52862;52.504;13.480;2023-02-28T04:38:59;18.93;;;7.97;;
51866;SDS011;52862;52.504;13.480;2023-02-28T04:41:27;26.17;;;8.63;;
51866;SDS011;52862;52.504;13.480;2023-02-28T04:43:57;22.20;;;7.90;;
51866;SDS011;52862;52.504;13.480;2023-02-28T04:46:24;19.03;;;8.20;;
51866;SDS011;52862;52.504;13.480;2023-02-28T04:48:51;19.13;;;7.17;;
51866;SDS011;52862;52.504;13.480;2023-02-28T04:51:19;21.97;;;7.77;;
51866;SDS011;52862;52.504;13.480;2023-02-28T04:53:46;25.17;;;8.37;;
51866;SDS011;52862;52.504;13.480;2023-02-28T04:56:13;17.27;;;7.93;;
51866;SDS011;52862;52.504;13.480;2023-02-28T04:58:42;22.13;;;8.13;;
51866;SDS011;52862;52.504;13.480;2023-02-28T05:01:16;28.60;;;7.60;;
51866;SDS011;52862;52.504;13.480;2023-02-28T05:03:45;18.97;;;7.40;;
51866;SDS011;52862;52.504;13.480;2023-02-28T05:06:12;19.23;;;7.10;;
51866;SDS011;52862;52.504;13.480;2023-02-28T05:08:39;20.27;;;8.17;;
51866;SDS011;52862;52.504;13.480;2023-02-28T05:11:07;25.70;;;8.20;;
51866;SDS011;52862;52.504;13.480;2023-02-28T05:13:40;23.30;;;9.20;;
51866;SDS011;52862;52.504;13.480;2023-02-28T05:16:08;38.80;;;9.77;;
51866;SDS011;52862;52.504;13.480;2023-02-28T05:18:34;21.87;;;8.57;;
51866;SDS011;52862;52.504;13.480;2023-02-28T05:21:01;28.63;;;9.17;;
51866;SDS011;52862;52.504;13.480;2023-02-28T05:23:28;18.77;;;8.37;;
51866;SDS011;52862;52.504;13.480;2023-02-28T05:25:55;34.10;;;9.10;;
51866;SDS011;52862;52.504;13.480;2023-02-28T05:28:22;19.90;;;7.67;;
51866;SDS011;52862;52.504;13.480;2023-02-28T05:30:50;33.87;;;7.33;;
51866;SDS011;52862;52.504;13.480;2023-02-28T05:33:17;27.60;;;8.20;;
51866;SDS011;52862;52.504;13.480;2023-02-28T05:35:43;21.03;;;8.47;;
51866;SDS011;52862;52.504;13.480;2023-02-28T05:38:10;22.27;;;8.20;;
51866;SDS011;52862;52.504;13.480;2023-02-28T05:40:37;27.50;;;9.13;;
51866;SDS011;52862;52.504;13.480;2023-02-28T05:43:05;21.70;;;8.50;;
51866;SDS011;52862;52.504;13.480;2023-02-28T05:45:31;22.13;;;8.27;;
51866;SDS011;52862;52.504;13.480;2023-02-28T05:47:59;20.97;;;8.43;;
51866;SDS011;52862;52.504;13.480;2023-02-28T05:50:25;21.50;;;7.83;;
51866;SDS011;52862;52.504;13.480;2023-02-28T05:52:52;32.23;;;8.47;;
51866;SDS011;52862;52.504;13.480;2023-02-28T05:55:19;19.13;;;8.47;;
51866;SDS011;52862;52.504;13.480;2023-02-28T05:57:46;19.37;;;8.17;;
51866;SDS011;52862;52.504;13.480;2023-02-28T06:00:13;23.73;;;8.33;;
51866;SDS011;52862;52.504;13.480;2023-02-28T06:02:41;21.77;;;9.20;;
51866;SDS011;52862;52.504;13.480;2023-02-28T06:05:09;23.50;;;8.07;;
51866;SDS011;52862;52.504;13.480;2023-02-28T06:07:39;46.03;;;9.37;;
51866;SDS011;52862;52.504;13.480;2023-02-28T06:10:07;35.13;;;8.73;;
51866;SDS011;52862;52.504;13.480;2023-02-28T06:12:34;36.27;;;8.57;;
51866;SDS011;52862;52.504;13.480;2023-02-28T06:15:01;25.63;;;8.43;;
51866;SDS011;52862;52.504;13.480;2023-02-28T06:17:28;24.37;;;8.47;;
51866;SDS011;52862;52.504;13.480;2023-02-28T06:19:55;18.93;;;8.20;;
51866;SDS011;52862;52.504;13.480;2023-02-28T06:22:23;29.40;;;8.70;;
51866;SDS011;52862;52.504;13.480;2023-02-28T06:24:49;20.83;;;9.33;;
51866;SDS011;52862;52.504;13.480;2023-02-28T06:27:18;31.07;;;8.57;;
51866;SDS011;52862;52.504;13.480;2023-02-28T06:29:45;34.67;;;10.00;;
51866;SDS011;52862;52.504;13.480;2023-02-28T06:32:12;19.97;;;7.73;;
51866;SDS011;52862;52.504;13.480;2023-02-28T06:34:39;19.77;;;8.10;;
51866;SDS011;52862;52.504;13.480;2023-02-28T06:37:08;25.70;;;8.60;;
51866;SDS011;52862;52.504;13.480;2023-02-28T06:39:35;26.30;;;9.30;;
51866;SDS011;52862;52.504;13.480;2023-02-28T06:42:02;30.73;;;8.67;;
51866;SDS011;52862;52.504;13.480;2023-02-28T06:44:29;24.50;;;9.50;;
51866;SDS011;52862;52.504;13.480;2023-02-28T06:47:00;29.37;;;9.13;;
51866;SDS011;52862;52.504;13.480;2023-02-28T06:49:28;22.27;;;9.03;;
51866;SDS011;52862;52.504;13.480;2023-02-28T06:51:55;28.53;;;8.97;;
51866;SDS011;52862;52.504;13.480;2023-02-28T06:54:22;18.70;;;8.13;;
51866;SDS011;52862;52.504;13.480;2023-02-28T06:56:49;19.13;;;9.47;;
51866;SDS011;52862;52.504;13.480;2023-02-28T06:59:16;30.57;;;10.60;;
51866;SDS011;52862;52.504;13.480;2023-02-28T07:01:43;33.50;;;9.73;;
51866;SDS011;52862;52.504;13.480;2023-02-28T07:04:10;24.63;;;9.47;;
51866;SDS011;52862;52.504;13.480;2023-02-28T07:06:38;35.10;;;8.60;;
51866;SDS011;52862;52.504;13.480;2023-02-28T07:09:05;32.13;;;10.20;;
51866;SDS011;52862;52.504;13.480;2023-02-28T07:11:32;38.03;;;10.23;;
51866;SDS011;52862;52.504;13.480;2023-02-28T07:13:59;31.80;;;9.80;;
51866;SDS011;52862;52.504;13.480;2023-02-28T07:16:26;26.47;;;9.73;;
51866;SDS011;52862;52.504;13.480;2023-02-28T07:18:52;27.97;;;8.73;;
51866;SDS011;52862;52.504;13.480;2023-02-28T07:21:20;21.83;;;9.67;;
51866;SDS011;52862;52.504;13.480;2023-02-28T07:23:49;17.90;;;8.27;;
51866;SDS011;52862;52.504;13.480;2023-02-28T07:26:16;32.27;;;8.73;;
51866;SDS011;52862;52.504;13.480;2023-02-28T07:28:45;22.13;;;9.17;;
51866;SDS011;52862;52.504;13.480;2023-02-28T07:31:13;22.87;;;9.80;;
51866;SDS011;52862;52.504;13.480;2023-02-28T07:33:41;31.03;;;10.40;;
51866;SDS011;52862;52.504;13.480;2023-02-28T07:36:08;21.00;;;8.70;;
51866;SDS011;52862;52.504;13.480;2023-02-28T07:38:40;27.63;;;10.03;;
51866;SDS011;52862;52.504;13.480;2023-02-28T07:41:07;23.20;;;9.17;;
51866;SDS011;52862;52.504;13.480;2023-02-28T07:43:34;20.10;;;8.57;;
51866;SDS011;52862;52.504;13.480;2023-02-28T07:46:02;28.77;;;9.07;;
51866;SDS011;52862;52.504;13.480;2023-02-28T07:48:30;33.10;;;9.20;;
51866;SDS011;52862;52.504;13.480;2023-02-28T07:50:57;21.03;;;8.03;;
51866;SDS011;52862;52.504;13.480;2023-02-28T07:53:24;18.93;;;8.73;;
51866;SDS011;52862;52.504;13.480;2023-02-28T07:55:54;28.60;;;8.87;;
51866;SDS011;52862;52.504;13.480;2023-02-28T07:58:22;25.43;;;7.97;;
51866;SDS011;52862;52.504;13.480;2023-02-28T08:00:49;26.23;;;8.40;;
51866;SDS011;52862;52.504;13.480;2023-02-28T08:03:16;20.97;;;7.40;;
51866;SDS011;52862;52.504;13.480;2023-02-28T08:05:44;23.00;;;7.40;;
51866;SDS011;52862;52.504;13.480;2023-02-28T08:08:11;24.57;;;6.77;;
51866;SDS011;52862;52.504;13.480;2023-02-28T08:10:38;17.63;;;6.33;;
51866;SDS011;52862;52.504;13.480;2023-02-28T08:13:05;21.13;;;6.57;;
51866;SDS011;52862;52.504;13.480;2023-02-28T08:15:32;17.10;;;7.13;;
51866;SDS011;52862;52.504;13.480;2023-02-28T08:17:58;27.77;;;7.20;;
51866;SDS011;52862;52.504;13.480;2023-02-28T08:20:26;20.93;;;7.10;;
51866;SDS011;52862;52.504;13.480;2023-02-28T08:22:53;17.23;;;6.50;;
51866;SDS011;52862;52.504;13.480;2023-02-28T08:25:20;15.03;;;5.77;;
51866;SDS011;52862;52.504;13.480;2023-02-28T08:27:46;22.40;;;6.10;;
51866;SDS011;52862;52.504;13.480;2023-02-28T08:30:13;17.23;;;5.30;;
51866;SDS011;52862;52.504;13.480;2023-02-28T08:32:41;12.63;;;5.30;;
51866;SDS011;52862;52.504;13.480;2023-02-28T08:35:08;20.47;;;5.37;;
51866;SDS011;52862;52.504;13.480;2023-02-28T08:37:35;10.43;;;4.20;;
51866;SDS011;52862;52.504;13.480;2023-02-28T08:40:02;9.43;;;3.63;;
51866;SDS011;52862;52.504;13.480;2023-02-28T08:42:30;11.97;;;5.97;;
51866;SDS011;52862;52.504;13.480;2023-02-28T08:44:57;15.17;;;6.67;;
51866;SDS011;52862;52.504;13.480;2023-02-28T08:47:24;7.73;;;3.63;;
51866;SDS011;52862;52.504;13.480;2023-02-28T08:49:50;6.67;;;2.90;;
51866;SDS011;52862;52.504;13.480;2023-02-28T08:52:17;10.07;;;3.60;;
51866;SDS011;52862;52.504;13.480;2023-02-28T08:54:44;8.60;;;3.90;;
51866;SDS011;52862;52.504;13.480;2023-02-28T08:57:11;7.83;;;3.80;;
51866;SDS011;52862;52.504;13.480;2023-02-28T08:59:38;11.20;;;4.27;;
51866;SDS011;52862;52.504;13.480;2023-02-28T09:02:04;10.53;;;3.83;;
51866;SDS011;52862;52.504;13.480;2023-02-28T09:04:31;6.97;;;3.03;;
51866;SDS011;52862;52.504;13.480;2023-02-28T09:06:59;10.77;;;3.77;;
51866;SDS011;52862;52.504;13.480;2023-02-28T09:09:26;7.00;;;2.47;;
51866;SDS011;52862;52.504;13.480;2023-02-28T09:11:54;16.83;;;2.97;;
51866;SDS011;52862;52.504;13.480;2023-02-28T09:14:22;9.20;;;2.90;;
51866;SDS011;52862;52.504;13.480;2023-02-28T09:16:48;8.20;;;3.53;;
51866;SDS011;52862;52.504;13.480;2023-02-28T09:19:15;8.90;;;3.10;;
51866;SDS011;52862;52.504;13.480;2023-02-28T09:21:42;13.53;;;3.57;;
51866;SDS011;52862;52.504;13.480;2023-02-28T09:24:09;12.60;;;3.23;;
51866;SDS011;52862;52.504;13.480;2023-02-28T09:26:37;7.07;;;2.87;;
51866;SDS011;52862;52.504;13.480;2023-02-28T09:29:16;11.00;;;2.77;;
51866;SDS011;52862;52.504;13.480;2023-02-28T09:31:45;8.13;;;3.33;;
51866;SDS011;52862;52.504;13.480;2023-02-28T09:34:12;10.23;;;3.23;;
51866;SDS011;52862;52.504;13.480;2023-02-28T09:36:38;12.60;;;3.37;;
51866;SDS011;52862;52.504;13.480;2023-02-28T09:39:11;15.80;;;3.50;;
51866;SDS011;52862;52.504;13.480;2023-02-28T09:41:41;15.27;;;5.03;;
51866;SDS011;52862;52.504;13.480;2023-02-28T09:44:16;11.40;;;4.17;;
51866;SDS011;52862;52.504;13.480;2023-02-28T09:46:49;9.07;;;2.77;;
51866;SDS011;52862;52.504;13.480;2023-02-28T09:49:22;3.80;;;2.10;;
51866;SDS011;52862;52.504;13.480;2023-02-28T09:51:52;7.03;;;2.80;;
51866;SDS011;52862;52.504;13.480;2023-02-28T09:54:24;17.63;;;6.77;;
51866;SDS011;52862;52.504;13.480;2023-02-28T09:56:55;14.23;;;3.67;;
51866;SDS011;52862;52.504;13.480;2023-02-28T09:59:29;5.83;;;2.87;;
51866;SDS011;52862;52.504;13.480;2023-02-28T10:02:08;12.90;;;3.00;;
51866;SDS011;52862;52.504;13.480;2023-02-28T10:04:46;5.40;;;2.57;;
51866;SDS011;52862;52.504;13.480;2023-02-28T10:07:21;6.40;;;3.03;;
51866;SDS011;52862;52.504;13.480;2023-02-28T10:09:55;10.27;;;3.00;;
51866;SDS011;52862;52.504;13.480;2023-02-28T10:12:26;8.93;;;3.73;;
51866;SDS011;52862;52.504;13.480;2023-02-28T10:14:55;4.90;;;2.33;;
51866;SDS011;52862;52.504;13.480;2023-02-28T10:17:26;4.80;;;2.40;;
51866;SDS011;52862;52.504;13.480;2023-02-28T10:20:21;6.63;;;2.33;;
51866;SDS011;52862;52.504;13.480;2023-02-28T10:22:57;8.90;;;3.30;;
51866;SDS011;52862;52.504;13.480;2023-02-28T10:25:27;12.17;;;2.77;;
51866;SDS011;52862;52.504;13.480;2023-02-28T10:27:56;7.97;;;3.00;;
51866;SDS011;52862;52.504;13.480;2023-02-28T10:30:26;6.67;;;2.80;;
51866;SDS011;52862;52.504;13.480;2023-02-28T10:32:54;8.27;;;3.10;;
51866;SDS011;52862;52.504;13.480;2023-02-28T10:35:22;8.80;;;3.30;;
51866;SDS011;52862;52.504;13.480;2023-02-28T10:37:53;12.30;;;2.70;;
51866;SDS011;52862;52.504;13.480;2023-02-28T10:40:26;8.00;;;2.83;;
51866;SDS011;52862;52.504;13.480;2023-02-28T10:42:56;6.40;;;3.13;;
51866;SDS011;52862;52.504;13.480;2023-02-28T10:45:24;6.37;;;2.80;;
51866;SDS011;52862;52.504;13.480;2023-02-28T10:47:53;10.50;;;3.27;;
51866;SDS011;52862;52.504;13.480;2023-02-28T10:50:29;8.70;;;3.03;;
51866;SDS011;52862;52.504;13.480;2023-02-28T10:53:17;7.37;;;2.50;;
51866;SDS011;52862;52.504;13.480;2023-02-28T10:55:58;7.10;;;3.40;;
51866;SDS011;52862;52.504;13.480;2023-02-28T10:58:27;9.47;;;3.70;;
51866;SDS011;52862;52.504;13.480;2023-02-28T11:00:55;11.07;;;4.07;;
51866;SDS011;52862;52.504;13.480;2023-02-28T11:03:24;13.80;;;4.27;;
51866;SDS011;52862;52.504;13.480;2023-02-28T11:05:55;29.17;;;3.63;;
51866;SDS011;52862;52.504;13.480;2023-02-28T11:08:22;9.77;;;4.10;;
51866;SDS011;52862;52.504;13.480;2023-02-28T11:10:53;10.37;;;3.63;;
51866;SDS011;52862;52.504;13.480;2023-02-28T11:13:24;9.17;;;3.63;;
51866;SDS011;52862;52.504;13.480;2023-02-28T11:15:54;9.60;;;3.87;;
51866;SDS011;52862;52.504;13.480;2023-02-28T11:18:23;14.43;;;3.70;;
51866;SDS011;52862;52.504;13.480;2023-02-28T11:20:55;6.57;;;3.43;;
51866;SDS011;52862;52.504;13.480;2023-02-28T11:23:24;13.37;;;4.23;;
51866;SDS011;52862;52.504;13.480;2023-02-28T11:25:54;8.70;;;3.70;;
51866;SDS011;52862;52.504;13.480;2023-02-28T11:28:25;10.53;;;4.10;;
51866;SDS011;52862;52.504;13.480;2023-02-28T11:31:01;8.97;;;3.80;;
51866;SDS011;52862;52.504;13.480;2023-02-28T11:33:41;10.83;;;4.07;;
51866;SDS011;52862;52.504;13.480;2023-02-28T11:36:11;11.87;;;4.23;;
51866;SDS011;52862;52.504;13.480;2023-02-28T11:38:40;10.93;;;4.30;;
51866;SDS011;52862;52.504;13.480;2023-02-28T11:41:11;10.20;;;4.00;;
51866;SDS011;52862;52.504;13.480;2023-02-28T11:44:00;12.13;;;4.00;;
51866;SDS011;52862;52.504;13.480;2023-02-28T11:46:39;9.83;;;4.00;;
51866;SDS011;52862;52.504;13.480;2023-02-28T11:49:18;10.07;;;3.53;;
51866;SDS011;52862;52.504;13.480;2023-02-28T11:51:53;7.50;;;3.80;;
51866;SDS011;52862;52.504;13.480;2023-02-28T11:54:25;11.40;;;4.07;;
51866;SDS011;52862;52.504;13.480;2023-02-28T11:57:03;10.80;;;3.83;;
51866;SDS011;52862;52.504;13.480;2023-02-28T11:59:46;8.13;;;3.77;;
51866;SDS011;52862;52.504;13.480;2023-02-28T12:02:25;14.73;;;3.73;;
51866;SDS011;52862;52.504;13.480;2023-02-28T12:05:02;13.20;;;3.97;;
51866;SDS011;52862;52.504;13.480;2023-02-28T12:07:38;10.40;;;3.60;;
51866;SDS011;52862;52.504;13.480;2023-02-28T12:10:16;9.57;;;4.30;;
51866;SDS011;52862;52.504;13.480;2023-02-28T12:12:49;7.27;;;3.50;;
51866;SDS011;52862;52.504;13.480;2023-02-28T12:15:34;10.63;;;3.83;;
51866;SDS011;52862;52.504;13.480;2023-02-28T12:18:23;11.30;;;3.57;;
51866;SDS011;52862;52.504;13.480;2023-02-28T12:20:57;6.70;;;3.40;;
51866;SDS011;52862;52.504;13.480;2023-02-28T12:23:42;8.77;;;3.30;;
51866;SDS011;52862;52.504;13.480;2023-02-28T12:26:34;7.10;;;3.30;;
51866;SDS011;52862;52.504;13.480;2023-02-28T12:29:08;9.17;;;3.13;;
51866;SDS011;52862;52.504;13.480;2023-02-28T12:31:40;10.13;;;3.43;;
51866;SDS011;52862;52.504;13.480;2023-02-28T12:34:12;6.73;;;3.40;;
51866;SDS011;52862;52.504;13.480;2023-02-28T12:36:42;16.33;;;3.23;;
51866;SDS011;52862;52.504;13.480;2023-02-28T12:39:12;6.03;;;3.20;;
51866;SDS011;52862;52.504;13.480;2023-02-28T12:41:45;5.73;;;3.20;;
51866;SDS011;52862;52.504;13.480;2023-02-28T12:44:17;8.90;;;3.23;;
51866;SDS011;52862;52.504;13.480;2023-02-28T12:46:48;6.87;;;3.20;;
51866;SDS011;52862;52.504;13.480;2023-02-28T12:49:18;7.87;;;2.80;;
51866;SDS011;52862;52.504;13.480;2023-02-28T12:51:50;7.90;;;3.03;;
51866;SDS011;52862;52.504;13.480;2023-02-28T12:54:19;7.50;;;3.53;;
51866;SDS011;52862;52.504;13.480;2023-02-28T12:56:53;6.03;;;3.07;;
51866;SDS011;52862;52.504;13.480;2023-02-28T12:59:27;8.23;;;3.50;;
51866;SDS011;52862;52.504;13.480;2023-02-28T13:02:02;7.90;;;3.03;;
51866;SDS011;52862;52.504;13.480;2023-02-28T13:04:52;6.57;;;2.80;;
51866;SDS011;52862;52.504;13.480;2023-02-28T13:10:38;7.97;;;3.00;;
51866;SDS011;52862;52.504;13.480;2023-02-28T13:13:10;7.57;;;3.60;;
51866;SDS011;52862;52.504;13.480;2023-02-28T13:15:41;14.23;;;3.77;;
51866;SDS011;52862;52.504;13.480;2023-02-28T13:18:29;7.20;;;3.03;;
51866;SDS011;52862;52.504;13.480;2023-02-28T13:20:58;8.70;;;3.50;;
51866;SDS011;52862;52.504;13.480;2023-02-28T13:23:40;11.40;;;3.53;;
51866;SDS011;52862;52.504;13.480;2023-02-28T13:26:36;9.73;;;3.20;;
51866;SDS011;52862;52.504;13.480;2023-02-28T13:29:56;9.13;;;3.67;;
51866;SDS011;52862;52.504;13.480;2023-02-28T13:32:30;11.47;;;3.57;;
51866;SDS011;52862;52.504;13.480;2023-02-28T13:35:14;8.13;;;3.67;;
51866;SDS011;52862;52.504;13.480;2023-02-28T13:38:09;8.33;;;3.13;;
51866;SDS011;52862;52.504;13.480;2023-02-28T13:40:42;15.97;;;3.57;;
51866;SDS011;52862;52.504;13.480;2023-02-28T13:43:10;8.93;;;3.40;;
51866;SDS011;52862;52.504;13.480;2023-02-28T13:45:37;13.23;;;3.83;;
51866;SDS011;52862;52.504;13.480;2023-02-28T13:48:15;7.97;;;3.30;;
51866;SDS011;52862;52.504;13.480;2023-02-28T13:50:43;8.07;;;3.40;;
51866;SDS011;52862;52.504;13.480;2023-02-28T13:56:23;10.30;;;3.40;;
51866;SDS011;52862;52.504;13.480;2023-02-28T13:59:03;5.80;;;3.00;;
51866;SDS011;52862;52.504;13.480;2023-02-28T14:01:47;8.20;;;3.50;;
51866;SDS011;52862;52.504;13.480;2023-02-28T14:07:21;9.53;;;3.10;;
51866;SDS011;52862;52.504;13.480;2023-02-28T14:09:54;8.40;;;3.53;;
51866;SDS011;52862;52.504;13.480;2023-02-28T14:15:41;11.30;;;4.67;;
51866;SDS011;52862;52.504;13.480;2023-02-28T14:18:25;6.87;;;3.50;;
51866;SDS011;52862;52.504;13.480;2023-02-28T14:20:57;9.00;;;3.93;;
51866;SDS011;52862;52.504;13.480;2023-02-28T14:23:34;8.73;;;4.27;;
51866;SDS011;52862;52.504;13.480;2023-02-28T14:32:37;14.90;;;3.90;;
51866;SDS011;52862;52.504;13.480;2023-02-28T14:35:26;7.47;;;3.90;;
51866;SDS011;52862;52.504;13.480;2023-02-28T14:38:07;15.67;;;4.13;;
51866;SDS011;52862;52.504;13.480;2023-02-28T14:40:42;7.53;;;3.40;;
51866;SDS011;52862;52.504;13.480;2023-02-28T14:43:18;9.63;;;4.03;;
51866;SDS011;52862;52.504;13.480;2023-02-28T14:45:49;9.93;;;3.87;;
51866;SDS011;52862;52.504;13.480;2023-02-28T14:48:18;9.27;;;4.43;;
51866;SDS011;52862;52.504;13.480;2023-02-28T14:50:48;14.73;;;6.00;;
51866;SDS011;52862;52.504;13.480;2023-02-28T14:53:17;9.20;;;4.53;;
51866;SDS011;52862;52.504;13.480;2023-02-28T14:55:46;17.33;;;4.10;;
51866;SDS011;52862;52.504;13.480;2023-02-28T14:58:20;7.67;;;3.90;;
51866;SDS011;52862;52.504;13.480;2023-02-28T15:00:49;12.20;;;4.03;;
51866;SDS011;52862;52.504;13.480;2023-02-28T15:03:20;8.90;;;4.03;;
51866;SDS011;52862;52.504;13.480;2023-02-28T15:05:52;12.00;;;4.83;;
51866;SDS011;52862;52.504;13.480;2023-02-28T15:08:19;14.33;;;4.70;;
51866;SDS011;52862;52.504;13.480;2023-02-28T15:10:50;13.90;;;4.73;;
51866;SDS011;52862;52.504;13.480;2023-02-28T15:13:19;7.73;;;3.93;;